sensor_id;sensor_type;location;lat;lon;timestamp;pressure;altitude;pressure_sealevel;temperature;humidity
64687;BME280;51113;53.646;-113.674;2024-01-30T00:00:21;93211.50;;;3.83;82.49
64687;BME280;51113;53.646;-113.674;2024-01-30T00:02:49;93222.50;;;3.96;82.98
64687;BME280;51113;53.646;-113.674;2024-01-30T00:05:17;93232.84;;;3.84;82.94
64687;BME280;51113;53.646;-113.674;2024-01-30T00:07:46;93220.31;;;3.87;83.03
64687;BME280;51113;53.646;-113.674;2024-01-30T00:10:15;93220.59;;;4.03;82.59
64687;BME280;51113;53.646;-113.674;2024-01-30T00:12:44;93219.56;;;4.04;82.76
64687;BME280;51113;53.646;-113.674;2024-01-30T00:15:12;93217.25;;;4.19;82.00
64687;BME280;51113;53.646;-113.674;2024-01-30T00:17:41;93209.78;;;4.17;81.13
64687;BME280;51113;53.646;-113.674;2024-01-30T00:20:10;93208.00;;;4.18;80.76
64687;BME280;51113;53.646;-113.674;2024-01-30T00:22:38;93207.06;;;4.24;81.21
64687;BME280;51113;53.646;-113.674;2024-01-30T00:25:07;93210.88;;;4.21;80.85
64687;BME280;51113;53.646;-113.674;2024-01-30T00:27:36;93196.25;;;4.22;80.66
64687;BME280;51113;53.646;-113.674;2024-01-30T00:30:05;93199.28;;;4.19;80.85
64687;BME280;51113;53.646;-113.674;2024-01-30T00:32:34;93204.72;;;4.22;80.48
64687;BME280;51113;53.646;-113.674;2024-01-30T00:35:03;93206.72;;;4.04;81.83
64687;BME280;51113;53.646;-113.674;2024-01-30T00:37:32;93203.22;;;4.10;81.22
64687;BME280;51113;53.646;-113.674;2024-01-30T00:40:04;93204.06;;;3.99;82.06
64687;BME280;51113;53.646;-113.674;2024-01-30T00:42:34;93211.88;;;4.04;82.55
64687;BME280;51113;53.646;-113.674;2024-01-30T00:45:03;93211.59;;;3.88;82.07
64687;BME280;51113;53.646;-113.674;2024-01-30T00:47:31;93217.69;;;3.71;83.78
64687;BME280;51113;53.646;-113.674;2024-01-30T00:50:01;93213.06;;;3.56;83.80
64687;BME280;51113;53.646;-113.674;2024-01-30T00:52:29;93218.28;;;3.61;83.58
64687;BME280;51113;53.646;-113.674;2024-01-30T00:54:58;93202.88;;;3.61;83.22
64687;BME280;51113;53.646;-113.674;2024-01-30T00:57:27;93217.19;;;3.57;84.13
64687;BME280;51113;53.646;-113.674;2024-01-30T00:59:57;93210.38;;;3.51;84.29
64687;BME280;51113;53.646;-113.674;2024-01-30T01:02:25;93215.44;;;3.46;85.47
64687;BME280;51113;53.646;-113.674;2024-01-30T01:04:53;93212.28;;;3.55;84.59
64687;BME280;51113;53.646;-113.674;2024-01-30T01:07:22;93212.50;;;3.54;84.59
64687;BME280;51113;53.646;-113.674;2024-01-30T01:09:51;93208.66;;;3.68;83.83
64687;BME280;51113;53.646;-113.674;2024-01-30T01:12:19;93203.25;;;3.81;83.70
64687;BME280;51113;53.646;-113.674;2024-01-30T01:14:47;93203.91;;;3.88;83.14
64687;BME280;51113;53.646;-113.674;2024-01-30T01:17:17;93196.66;;;3.85;83.07
64687;BME280;51113;53.646;-113.674;2024-01-30T01:19:46;93206.47;;;3.88;83.29
64687;BME280;51113;53.646;-113.674;2024-01-30T01:22:16;93205.28;;;3.79;83.23
64687;BME280;51113;53.646;-113.674;2024-01-30T01:24:45;93189.84;;;3.51;84.82
64687;BME280;51113;53.646;-113.674;2024-01-30T01:27:14;93193.88;;;3.47;84.69
64687;BME280;51113;53.646;-113.674;2024-01-30T01:29:42;93185.22;;;3.36;85.48
64687;BME280;51113;53.646;-113.674;2024-01-30T01:32:11;93195.16;;;3.33;85.59
64687;BME280;51113;53.646;-113.674;2024-01-30T01:34:39;93194.50;;;3.26;86.58
64687;BME280;51113;53.646;-113.674;2024-01-30T01:37:08;93194.19;;;3.10;86.60
64687;BME280;51113;53.646;-113.674;2024-01-30T01:39:37;93199.44;;;3.15;86.20
64687;BME280;51113;53.646;-113.674;2024-01-30T01:42:06;93197.75;;;3.09;86.88
64687;BME280;51113;53.646;-113.674;2024-01-30T01:44:34;93197.88;;;3.03;86.43
64687;BME280;51113;53.646;-113.674;2024-01-30T01:47:03;93199.78;;;3.07;86.82
64687;BME280;51113;53.646;-113.674;2024-01-30T01:49:31;93193.63;;;3.08;86.75
64687;BME280;51113;53.646;-113.674;2024-01-30T01:52:01;93188.50;;;3.08;86.83
64687;BME280;51113;53.646;-113.674;2024-01-30T01:54:30;93174.56;;;3.16;86.34
64687;BME280;51113;53.646;-113.674;2024-01-30T01:56:59;93175.78;;;3.13;86.22
64687;BME280;51113;53.646;-113.674;2024-01-30T01:59:28;93177.91;;;3.05;86.46
64687;BME280;51113;53.646;-113.674;2024-01-30T02:01:57;93182.69;;;3.13;86.45
64687;BME280;51113;53.646;-113.674;2024-01-30T02:04:25;93173.66;;;3.10;86.26
64687;BME280;51113;53.646;-113.674;2024-01-30T02:06:54;93169.22;;;3.06;86.72
64687;BME280;51113;53.646;-113.674;2024-01-30T02:09:24;93158.31;;;2.99;86.91
64687;BME280;51113;53.646;-113.674;2024-01-30T02:11:52;93164.78;;;3.01;86.97
64687;BME280;51113;53.646;-113.674;2024-01-30T02:14:21;93148.41;;;2.90;87.03
64687;BME280;51113;53.646;-113.674;2024-01-30T02:16:51;93149.53;;;2.83;87.31
64687;BME280;51113;53.646;-113.674;2024-01-30T02:19:19;93149.19;;;2.79;87.59
64687;BME280;51113;53.646;-113.674;2024-01-30T02:21:48;93142.38;;;2.85;87.59
64687;BME280;51113;53.646;-113.674;2024-01-30T02:24:18;93149.19;;;2.79;88.22
64687;BME280;51113;53.646;-113.674;2024-01-30T02:26:46;93158.22;;;2.58;88.41
64687;BME280;51113;53.646;-113.674;2024-01-30T02:29:15;93154.22;;;2.63;88.62
64687;BME280;51113;53.646;-113.674;2024-01-30T02:31:43;93148.66;;;2.66;89.06
64687;BME280;51113;53.646;-113.674;2024-01-30T02:34:14;93140.75;;;2.55;88.47
64687;BME280;51113;53.646;-113.674;2024-01-30T02:36:43;93132.16;;;2.38;89.53
64687;BME280;51113;53.646;-113.674;2024-01-30T02:39:12;93128.25;;;2.36;90.02
64687;BME280;51113;53.646;-113.674;2024-01-30T02:41:40;93116.22;;;2.48;89.30
64687;BME280;51113;53.646;-113.674;2024-01-30T02:44:09;93105.75;;;2.49;89.57
64687;BME280;51113;53.646;-113.674;2024-01-30T02:46:38;93107.88;;;2.41;89.99
64687;BME280;51113;53.646;-113.674;2024-01-30T02:49:06;93114.34;;;2.43;89.86
64687;BME280;51113;53.646;-113.674;2024-01-30T02:51:35;93103.75;;;2.40;89.75
64687;BME280;51113;53.646;-113.674;2024-01-30T02:54:03;93100.53;;;2.21;89.66
64687;BME280;51113;53.646;-113.674;2024-01-30T02:56:32;93106.53;;;2.15;91.16
64687;BME280;51113;53.646;-113.674;2024-01-30T02:59:01;93118.00;;;2.24;91.03
64687;BME280;51113;53.646;-113.674;2024-01-30T03:01:29;93121.13;;;2.49;90.54
64687;BME280;51113;53.646;-113.674;2024-01-30T03:04:00;93119.56;;;2.60;89.62
64687;BME280;51113;53.646;-113.674;2024-01-30T03:06:28;93123.25;;;2.52;88.70
64687;BME280;51113;53.646;-113.674;2024-01-30T03:08:57;93104.63;;;2.69;89.23
64687;BME280;51113;53.646;-113.674;2024-01-30T03:11:25;93095.34;;;3.19;86.65
64687;BME280;51113;53.646;-113.674;2024-01-30T03:13:54;93101.25;;;2.80;87.65
64687;BME280;51113;53.646;-113.674;2024-01-30T03:16:22;93092.59;;;2.69;88.05
64687;BME280;51113;53.646;-113.674;2024-01-30T03:18:51;93086.25;;;2.48;89.08
64687;BME280;51113;53.646;-113.674;2024-01-30T03:21:19;93081.81;;;2.32;90.40
64687;BME280;51113;53.646;-113.674;2024-01-30T03:23:48;93092.81;;;1.86;90.64
64687;BME280;51113;53.646;-113.674;2024-01-30T03:26:16;93091.81;;;1.87;92.39
64687;BME280;51113;53.646;-113.674;2024-01-30T03:28:45;93085.25;;;1.79;92.03
64687;BME280;51113;53.646;-113.674;2024-01-30T03:31:15;93095.38;;;1.86;92.16
64687;BME280;51113;53.646;-113.674;2024-01-30T03:33:44;93079.56;;;1.77;93.03
64687;BME280;51113;53.646;-113.674;2024-01-30T03:36:12;93066.06;;;1.58;93.79
64687;BME280;51113;53.646;-113.674;2024-01-30T03:38:41;93049.03;;;1.52;93.03
64687;BME280;51113;53.646;-113.674;2024-01-30T03:41:10;93061.63;;;1.54;93.47
64687;BME280;51113;53.646;-113.674;2024-01-30T03:43:39;93053.00;;;1.37;94.11
64687;BME280;51113;53.646;-113.674;2024-01-30T03:46:07;93056.91;;;1.39;94.54
64687;BME280;51113;53.646;-113.674;2024-01-30T03:48:36;93055.56;;;1.37;94.05
64687;BME280;51113;53.646;-113.674;2024-01-30T03:51:05;93051.78;;;1.39;94.35
64687;BME280;51113;53.646;-113.674;2024-01-30T03:53:33;93050.00;;;1.40;94.33
64687;BME280;51113;53.646;-113.674;2024-01-30T03:56:02;93049.25;;;1.51;94.85
64687;BME280;51113;53.646;-113.674;2024-01-30T03:58:31;93041.25;;;1.59;94.17
64687;BME280;51113;53.646;-113.674;2024-01-30T04:01:00;93040.19;;;1.78;93.61
64687;BME280;51113;53.646;-113.674;2024-01-30T04:03:28;93025.16;;;1.82;93.72
64687;BME280;51113;53.646;-113.674;2024-01-30T04:05:57;93021.94;;;1.86;93.55
64687;BME280;51113;53.646;-113.674;2024-01-30T04:08:26;93017.38;;;2.00;92.59
64687;BME280;51113;53.646;-113.674;2024-01-30T04:10:54;93012.34;;;2.05;92.63
64687;BME280;51113;53.646;-113.674;2024-01-30T04:13:23;93012.66;;;2.20;91.64
64687;BME280;51113;53.646;-113.674;2024-01-30T04:15:52;93012.78;;;2.25;91.30
64687;BME280;51113;53.646;-113.674;2024-01-30T04:18:22;92998.59;;;2.46;90.48
64687;BME280;51113;53.646;-113.674;2024-01-30T04:20:51;92986.38;;;2.37;90.28
64687;BME280;51113;53.646;-113.674;2024-01-30T04:23:19;92990.06;;;2.29;90.43
64687;BME280;51113;53.646;-113.674;2024-01-30T04:25:48;92998.88;;;2.21;91.11
64687;BME280;51113;53.646;-113.674;2024-01-30T04:28:17;92999.44;;;2.12;91.53
64687;BME280;51113;53.646;-113.674;2024-01-30T04:30:45;93005.44;;;2.06;92.01
64687;BME280;51113;53.646;-113.674;2024-01-30T04:33:14;92993.75;;;2.10;91.87
64687;BME280;51113;53.646;-113.674;2024-01-30T04:35:43;93003.75;;;2.23;91.40
64687;BME280;51113;53.646;-113.674;2024-01-30T04:38:11;93006.75;;;2.32;90.78
64687;BME280;51113;53.646;-113.674;2024-01-30T04:40:40;93000.16;;;2.47;90.38
64687;BME280;51113;53.646;-113.674;2024-01-30T04:43:09;92993.56;;;2.51;90.07
64687;BME280;51113;53.646;-113.674;2024-01-30T04:45:37;92995.44;;;2.56;89.71
64687;BME280;51113;53.646;-113.674;2024-01-30T04:48:06;93000.44;;;2.63;89.56
64687;BME280;51113;53.646;-113.674;2024-01-30T04:50:35;93004.09;;;2.67;89.22
64687;BME280;51113;53.646;-113.674;2024-01-30T04:53:04;92996.59;;;2.77;88.68
64687;BME280;51113;53.646;-113.674;2024-01-30T04:55:32;92998.63;;;2.75;89.15
64687;BME280;51113;53.646;-113.674;2024-01-30T04:58:01;92993.03;;;2.78;88.71
64687;BME280;51113;53.646;-113.674;2024-01-30T05:00:30;92993.94;;;2.72;88.92
64687;BME280;51113;53.646;-113.674;2024-01-30T05:02:58;92994.09;;;2.65;89.04
64687;BME280;51113;53.646;-113.674;2024-01-30T05:05:27;92979.25;;;2.67;89.35
64687;BME280;51113;53.646;-113.674;2024-01-30T05:07:56;92985.56;;;2.76;88.71
64687;BME280;51113;53.646;-113.674;2024-01-30T05:10:24;92970.19;;;2.76;88.86
64687;BME280;51113;53.646;-113.674;2024-01-30T05:12:53;92960.06;;;2.70;88.89
64687;BME280;51113;53.646;-113.674;2024-01-30T05:15:21;92968.03;;;2.56;89.46
64687;BME280;51113;53.646;-113.674;2024-01-30T05:17:50;92963.91;;;2.55;89.96
64687;BME280;51113;53.646;-113.674;2024-01-30T05:20:20;92956.50;;;2.71;89.38
64687;BME280;51113;53.646;-113.674;2024-01-30T05:22:49;92956.31;;;2.61;89.60
64687;BME280;51113;53.646;-113.674;2024-01-30T05:25:17;92956.56;;;2.59;89.52
64687;BME280;51113;53.646;-113.674;2024-01-30T05:27:47;92952.34;;;2.53;90.20
64687;BME280;51113;53.646;-113.674;2024-01-30T05:30:16;92945.66;;;2.52;90.27
64687;BME280;51113;53.646;-113.674;2024-01-30T05:32:44;92937.38;;;2.33;90.41
64687;BME280;51113;53.646;-113.674;2024-01-30T05:35:13;92926.47;;;2.26;91.16
64687;BME280;51113;53.646;-113.674;2024-01-30T05:37:42;92917.38;;;2.18;91.39
64687;BME280;51113;53.646;-113.674;2024-01-30T05:40:11;92921.44;;;2.31;91.10
64687;BME280;51113;53.646;-113.674;2024-01-30T05:42:39;92919.50;;;2.50;90.35
64687;BME280;51113;53.646;-113.674;2024-01-30T05:45:08;92915.41;;;2.66;89.42
64687;BME280;51113;53.646;-113.674;2024-01-30T05:47:37;92919.09;;;2.86;88.66
64687;BME280;51113;53.646;-113.674;2024-01-30T05:50:06;92914.63;;;3.10;87.46
64687;BME280;51113;53.646;-113.674;2024-01-30T05:52:35;92902.47;;;3.39;86.11
64687;BME280;51113;53.646;-113.674;2024-01-30T05:55:04;92910.25;;;3.61;84.93
64687;BME280;51113;53.646;-113.674;2024-01-30T05:57:33;92902.69;;;3.71;84.00
64687;BME280;51113;53.646;-113.674;2024-01-30T06:00:01;92888.00;;;3.88;83.14
64687;BME280;51113;53.646;-113.674;2024-01-30T06:02:30;92893.03;;;4.00;82.45
64687;BME280;51113;53.646;-113.674;2024-01-30T06:04:59;92881.81;;;4.06;82.13
64687;BME280;51113;53.646;-113.674;2024-01-30T06:07:28;92873.72;;;3.98;82.55
64687;BME280;51113;53.646;-113.674;2024-01-30T06:10:02;92876.41;;;4.08;82.51
64687;BME280;51113;53.646;-113.674;2024-01-30T06:12:31;92863.81;;;4.06;81.99
64687;BME280;51113;53.646;-113.674;2024-01-30T06:15:00;92864.72;;;4.17;81.73
64687;BME280;51113;53.646;-113.674;2024-01-30T06:17:28;92856.84;;;4.02;82.18
64687;BME280;51113;53.646;-113.674;2024-01-30T06:19:57;92857.66;;;4.07;82.17
64687;BME280;51113;53.646;-113.674;2024-01-30T06:22:26;92853.31;;;4.08;82.27
64687;BME280;51113;53.646;-113.674;2024-01-30T06:24:54;92850.19;;;4.06;82.28
64687;BME280;51113;53.646;-113.674;2024-01-30T06:27:23;92855.03;;;4.02;82.34
64687;BME280;51113;53.646;-113.674;2024-01-30T06:29:51;92838.31;;;4.00;82.69
64687;BME280;51113;53.646;-113.674;2024-01-30T06:32:20;92838.38;;;4.05;82.38
64687;BME280;51113;53.646;-113.674;2024-01-30T06:34:49;92808.56;;;4.04;82.04
64687;BME280;51113;53.646;-113.674;2024-01-30T06:37:17;92835.25;;;4.03;82.53
64687;BME280;51113;53.646;-113.674;2024-01-30T06:39:46;92832.94;;;4.01;82.41
64687;BME280;51113;53.646;-113.674;2024-01-30T06:42:15;92831.50;;;4.10;82.13
64687;BME280;51113;53.646;-113.674;2024-01-30T06:44:44;92834.03;;;4.32;81.45
64687;BME280;51113;53.646;-113.674;2024-01-30T06:47:15;92828.50;;;4.45;80.64
64687;BME280;51113;53.646;-113.674;2024-01-30T06:49:44;92825.97;;;4.50;80.22
64687;BME280;51113;53.646;-113.674;2024-01-30T06:52:13;92835.50;;;4.50;80.43
64687;BME280;51113;53.646;-113.674;2024-01-30T06:54:42;92820.16;;;4.60;79.84
64687;BME280;51113;53.646;-113.674;2024-01-30T06:57:11;92819.66;;;4.63;79.45
64687;BME280;51113;53.646;-113.674;2024-01-30T06:59:40;92817.25;;;4.51;79.90
64687;BME280;51113;53.646;-113.674;2024-01-30T07:02:11;92806.06;;;4.36;80.82
64687;BME280;51113;53.646;-113.674;2024-01-30T07:04:40;92803.38;;;4.26;81.16
64687;BME280;51113;53.646;-113.674;2024-01-30T07:07:13;92802.03;;;4.18;81.43
64687;BME280;51113;53.646;-113.674;2024-01-30T07:09:43;92793.50;;;4.12;81.85
64687;BME280;51113;53.646;-113.674;2024-01-30T07:12:12;92799.34;;;4.08;82.05
64687;BME280;51113;53.646;-113.674;2024-01-30T07:14:40;92802.59;;;3.98;82.61
64687;BME280;51113;53.646;-113.674;2024-01-30T07:17:09;92791.06;;;4.01;82.70
64687;BME280;51113;53.646;-113.674;2024-01-30T07:19:38;92777.03;;;3.86;82.76
64687;BME280;51113;53.646;-113.674;2024-01-30T07:22:06;92774.19;;;3.83;83.31
64687;BME280;51113;53.646;-113.674;2024-01-30T07:24:35;92782.81;;;3.99;82.90
64687;BME280;51113;53.646;-113.674;2024-01-30T07:27:04;92778.75;;;4.03;82.67
64687;BME280;51113;53.646;-113.674;2024-01-30T07:29:32;92768.03;;;4.11;82.13
64687;BME280;51113;53.646;-113.674;2024-01-30T07:32:01;92773.44;;;4.09;82.21
64687;BME280;51113;53.646;-113.674;2024-01-30T07:34:29;92772.41;;;4.10;82.33
64687;BME280;51113;53.646;-113.674;2024-01-30T07:37:07;92746.56;;;4.22;81.48
64687;BME280;51113;53.646;-113.674;2024-01-30T07:39:41;92741.44;;;4.22;81.56
64687;BME280;51113;53.646;-113.674;2024-01-30T07:42:09;92744.81;;;4.28;81.52
64687;BME280;51113;53.646;-113.674;2024-01-30T07:44:38;92742.28;;;4.33;81.11
64687;BME280;51113;53.646;-113.674;2024-01-30T07:47:07;92730.50;;;4.37;81.03
64687;BME280;51113;53.646;-113.674;2024-01-30T07:49:35;92731.03;;;4.39;80.82
64687;BME280;51113;53.646;-113.674;2024-01-30T07:52:04;92744.81;;;4.28;81.10
64687;BME280;51113;53.646;-113.674;2024-01-30T07:54:33;92734.97;;;4.19;81.34
64687;BME280;51113;53.646;-113.674;2024-01-30T07:57:02;92732.41;;;4.19;81.44
64687;BME280;51113;53.646;-113.674;2024-01-30T07:59:31;92732.00;;;4.01;82.49
64687;BME280;51113;53.646;-113.674;2024-01-30T08:01:59;92726.41;;;3.82;83.36
64687;BME280;51113;53.646;-113.674;2024-01-30T08:04:28;92730.72;;;3.76;83.88
64687;BME280;51113;53.646;-113.674;2024-01-30T08:06:57;92729.44;;;3.52;85.00
64687;BME280;51113;53.646;-113.674;2024-01-30T08:09:26;92736.00;;;3.43;85.20
64687;BME280;51113;53.646;-113.674;2024-01-30T08:11:54;92725.59;;;3.33;86.09
64687;BME280;51113;53.646;-113.674;2024-01-30T08:14:24;92731.47;;;3.28;86.17
64687;BME280;51113;53.646;-113.674;2024-01-30T08:16:54;92731.41;;;3.23;86.29
64687;BME280;51113;53.646;-113.674;2024-01-30T08:19:23;92733.59;;;3.14;87.00
64687;BME280;51113;53.646;-113.674;2024-01-30T08:21:52;92704.06;;;3.34;86.15
64687;BME280;51113;53.646;-113.674;2024-01-30T08:24:21;92711.94;;;3.27;86.45
64687;BME280;51113;53.646;-113.674;2024-01-30T08:26:49;92716.53;;;3.25;86.34
64687;BME280;51113;53.646;-113.674;2024-01-30T08:29:18;92703.78;;;3.30;86.51
64687;BME280;51113;53.646;-113.674;2024-01-30T08:31:46;92702.41;;;3.22;86.60
64687;BME280;51113;53.646;-113.674;2024-01-30T08:34:15;92694.47;;;3.24;86.75
64687;BME280;51113;53.646;-113.674;2024-01-30T08:36:44;92689.63;;;3.28;86.86
64687;BME280;51113;53.646;-113.674;2024-01-30T08:39:13;92683.53;;;3.34;86.37
64687;BME280;51113;53.646;-113.674;2024-01-30T08:41:42;92671.50;;;3.34;86.20
64687;BME280;51113;53.646;-113.674;2024-01-30T08:44:11;92670.81;;;3.44;86.10
64687;BME280;51113;53.646;-113.674;2024-01-30T08:46:40;92670.47;;;3.35;86.02
64687;BME280;51113;53.646;-113.674;2024-01-30T08:49:08;92678.06;;;3.25;86.55
64687;BME280;51113;53.646;-113.674;2024-01-30T08:51:37;92671.31;;;3.41;85.92
64687;BME280;51113;53.646;-113.674;2024-01-30T08:54:06;92666.94;;;3.41;85.78
64687;BME280;51113;53.646;-113.674;2024-01-30T08:56:35;92647.84;;;3.54;85.29
64687;BME280;51113;53.646;-113.674;2024-01-30T08:59:03;92636.25;;;3.51;85.26
64687;BME280;51113;53.646;-113.674;2024-01-30T09:01:32;92641.69;;;3.55;85.18
64687;BME280;51113;53.646;-113.674;2024-01-30T09:04:01;92650.75;;;3.63;84.59
64687;BME280;51113;53.646;-113.674;2024-01-30T09:06:30;92633.50;;;3.58;84.84
64687;BME280;51113;53.646;-113.674;2024-01-30T09:08:59;92632.25;;;3.61;84.85
64687;BME280;51113;53.646;-113.674;2024-01-30T09:11:27;92618.00;;;3.48;85.19
64687;BME280;51113;53.646;-113.674;2024-01-30T09:13:56;92617.81;;;3.54;85.20
64687;BME280;51113;53.646;-113.674;2024-01-30T09:16:25;92617.53;;;3.51;85.24
64687;BME280;51113;53.646;-113.674;2024-01-30T09:18:53;92619.03;;;3.47;85.32
64687;BME280;51113;53.646;-113.674;2024-01-30T09:21:22;92610.88;;;3.55;85.15
64687;BME280;51113;53.646;-113.674;2024-01-30T09:23:54;92615.97;;;3.50;85.11
64687;BME280;51113;53.646;-113.674;2024-01-30T09:26:23;92617.44;;;3.41;85.59
64687;BME280;51113;53.646;-113.674;2024-01-30T09:28:53;92616.94;;;3.44;85.57
64687;BME280;51113;53.646;-113.674;2024-01-30T09:31:21;92616.94;;;3.44;85.54
64687;BME280;51113;53.646;-113.674;2024-01-30T09:33:50;92601.53;;;3.44;85.47
64687;BME280;51113;53.646;-113.674;2024-01-30T09:36:20;92605.66;;;3.45;85.68
64687;BME280;51113;53.646;-113.674;2024-01-30T09:38:48;92610.25;;;3.43;85.53
64687;BME280;51113;53.646;-113.674;2024-01-30T09:41:19;92605.63;;;3.40;85.48
64687;BME280;51113;53.646;-113.674;2024-01-30T09:43:48;92598.88;;;3.34;85.92
64687;BME280;51113;53.646;-113.674;2024-01-30T09:46:20;92597.38;;;3.38;86.03
64687;BME280;51113;53.646;-113.674;2024-01-30T09:48:50;92593.50;;;3.35;85.87
64687;BME280;51113;53.646;-113.674;2024-01-30T09:51:19;92592.78;;;3.40;85.85
64687;BME280;51113;53.646;-113.674;2024-01-30T09:53:49;92589.00;;;3.47;85.51
64687;BME280;51113;53.646;-113.674;2024-01-30T09:56:18;92589.00;;;3.47;85.40
64687;BME280;51113;53.646;-113.674;2024-01-30T09:58:47;92591.94;;;3.61;84.90
64687;BME280;51113;53.646;-113.674;2024-01-30T10:01:17;92575.09;;;3.70;84.47
64687;BME280;51113;53.646;-113.674;2024-01-30T10:03:50;92578.91;;;3.68;84.23
64687;BME280;51113;53.646;-113.674;2024-01-30T10:06:20;92580.78;;;3.45;85.53
64687;BME280;51113;53.646;-113.674;2024-01-30T10:08:51;92584.25;;;3.34;86.11
64687;BME280;51113;53.646;-113.674;2024-01-30T10:11:19;92575.50;;;3.30;86.10
64687;BME280;51113;53.646;-113.674;2024-01-30T10:13:49;92572.06;;;3.19;86.75
64687;BME280;51113;53.646;-113.674;2024-01-30T10:16:17;92582.03;;;3.16;86.91
64687;BME280;51113;53.646;-113.674;2024-01-30T10:18:46;92565.44;;;3.23;86.70
64687;BME280;51113;53.646;-113.674;2024-01-30T10:21:15;92555.22;;;3.29;86.67
64687;BME280;51113;53.646;-113.674;2024-01-30T10:23:44;92548.78;;;3.26;86.67
64687;BME280;51113;53.646;-113.674;2024-01-30T10:26:13;92548.00;;;3.26;86.79
64687;BME280;51113;53.646;-113.674;2024-01-30T10:28:45;92536.19;;;3.24;86.49
64687;BME280;51113;53.646;-113.674;2024-01-30T10:31:16;92529.75;;;3.22;86.47
64687;BME280;51113;53.646;-113.674;2024-01-30T10:33:46;92526.59;;;3.42;85.82
64687;BME280;51113;53.646;-113.674;2024-01-30T10:36:15;92520.59;;;4.00;83.86
64687;BME280;51113;53.646;-113.674;2024-01-30T10:38:50;92514.75;;;4.10;83.06
64687;BME280;51113;53.646;-113.674;2024-01-30T10:41:23;92510.34;;;4.05;83.26
64687;BME280;51113;53.646;-113.674;2024-01-30T10:44:02;92504.88;;;4.39;81.98
64687;BME280;51113;53.646;-113.674;2024-01-30T10:46:32;92503.59;;;4.41;81.61
64687;BME280;51113;53.646;-113.674;2024-01-30T10:49:04;92499.53;;;4.56;81.05
64687;BME280;51113;53.646;-113.674;2024-01-30T10:51:34;92490.81;;;4.62;80.69
64687;BME280;51113;53.646;-113.674;2024-01-30T10:54:05;92493.13;;;4.58;80.57
64687;BME280;51113;53.646;-113.674;2024-01-30T10:56:35;92482.50;;;4.34;81.13
64687;BME280;51113;53.646;-113.674;2024-01-30T10:59:04;92481.53;;;4.50;81.06
64687;BME280;51113;53.646;-113.674;2024-01-30T11:01:37;92482.53;;;4.44;81.19
64687;BME280;51113;53.646;-113.674;2024-01-30T11:04:06;92484.09;;;4.45;81.08
64687;BME280;51113;53.646;-113.674;2024-01-30T11:06:41;92475.84;;;4.43;81.06
64687;BME280;51113;53.646;-113.674;2024-01-30T11:09:11;92465.03;;;4.36;81.54
64687;BME280;51113;53.646;-113.674;2024-01-30T11:11:59;92457.25;;;4.21;81.44
64687;BME280;51113;53.646;-113.674;2024-01-30T11:14:31;92458.63;;;4.44;81.21
64687;BME280;51113;53.646;-113.674;2024-01-30T11:17:00;92455.75;;;4.30;81.59
64687;BME280;51113;53.646;-113.674;2024-01-30T11:19:31;92446.75;;;4.28;81.53
64687;BME280;51113;53.646;-113.674;2024-01-30T11:22:00;92442.44;;;4.48;80.87
64687;BME280;51113;53.646;-113.674;2024-01-30T11:24:29;92437.31;;;4.48;80.85
64687;BME280;51113;53.646;-113.674;2024-01-30T11:26:59;92426.03;;;4.54;80.60
64687;BME280;51113;53.646;-113.674;2024-01-30T11:29:28;92426.03;;;4.65;80.34
64687;BME280;51113;53.646;-113.674;2024-01-30T11:31:58;92411.66;;;4.69;80.10
64687;BME280;51113;53.646;-113.674;2024-01-30T11:34:27;92399.81;;;4.68;79.56
64687;BME280;51113;53.646;-113.674;2024-01-30T11:37:02;92412.19;;;4.91;78.65
64687;BME280;51113;53.646;-113.674;2024-01-30T11:39:32;92407.28;;;4.79;79.18
64687;BME280;51113;53.646;-113.674;2024-01-30T11:42:00;92408.34;;;4.83;79.03
64687;BME280;51113;53.646;-113.674;2024-01-30T11:44:31;92400.09;;;4.71;79.49
64687;BME280;51113;53.646;-113.674;2024-01-30T11:46:59;92400.88;;;4.82;79.35
64687;BME280;51113;53.646;-113.674;2024-01-30T11:49:29;92401.38;;;4.74;79.62
64687;BME280;51113;53.646;-113.674;2024-01-30T11:51:57;92393.44;;;5.06;78.38
64687;BME280;51113;53.646;-113.674;2024-01-30T11:54:26;92389.56;;;5.13;77.96
64687;BME280;51113;53.646;-113.674;2024-01-30T11:56:55;92371.28;;;5.20;77.61
64687;BME280;51113;53.646;-113.674;2024-01-30T11:59:24;92366.13;;;5.30;77.19
64687;BME280;51113;53.646;-113.674;2024-01-30T12:01:52;92365.88;;;5.42;76.92
64687;BME280;51113;53.646;-113.674;2024-01-30T12:04:21;92371.00;;;5.47;76.44
64687;BME280;51113;53.646;-113.674;2024-01-30T12:06:51;92372.03;;;5.51;76.42
64687;BME280;51113;53.646;-113.674;2024-01-30T12:09:20;92366.38;;;5.44;76.40
64687;BME280;51113;53.646;-113.674;2024-01-30T12:11:50;92357.63;;;5.40;76.84
64687;BME280;51113;53.646;-113.674;2024-01-30T12:14:19;92350.44;;;5.37;76.89
64687;BME280;51113;53.646;-113.674;2024-01-30T12:16:49;92331.34;;;5.48;76.78
64687;BME280;51113;53.646;-113.674;2024-01-30T12:19:23;92313.59;;;5.41;76.83
64687;BME280;51113;53.646;-113.674;2024-01-30T12:21:57;92287.03;;;5.56;76.30
64687;BME280;51113;53.646;-113.674;2024-01-30T12:24:27;92296.03;;;5.59;76.18
64687;BME280;51113;53.646;-113.674;2024-01-30T12:26:59;92287.28;;;5.60;75.98
64687;BME280;51113;53.646;-113.674;2024-01-30T12:29:32;92284.50;;;5.51;76.59
64687;BME280;51113;53.646;-113.674;2024-01-30T12:32:05;92277.22;;;5.63;76.29
64687;BME280;51113;53.646;-113.674;2024-01-30T12:34:34;92271.28;;;5.73;75.54
64687;BME280;51113;53.646;-113.674;2024-01-30T12:37:16;92278.75;;;5.69;75.79
64687;BME280;51113;53.646;-113.674;2024-01-30T12:39:54;92265.84;;;5.79;75.09
64687;BME280;51113;53.646;-113.674;2024-01-30T12:42:23;92266.69;;;5.60;76.33
64687;BME280;51113;53.646;-113.674;2024-01-30T12:44:51;92259.50;;;5.51;76.13
64687;BME280;51113;53.646;-113.674;2024-01-30T12:47:23;92253.38;;;5.42;76.48
64687;BME280;51113;53.646;-113.674;2024-01-30T12:49:51;92263.94;;;5.36;76.87